sensor_id;sensor_type;location;lat;lon;timestamp;P1;durP1;ratioP1;P2;durP2;ratioP2
11962;SDS011;62678;52.130;5.584;2023-05-10T00:02:03;51.28;;;31.17;;
11962;SDS011;62678;52.130;5.584;2023-05-10T00:04:30;49.83;;;30.13;;
11962;SDS011;62678;52.130;5.584;2023-05-10T00:06:57;53.47;;;30.73;;
11962;SDS011;62678;52.130;5.584;2023-05-10T00:09:24;49.90;;;29.88;;
11962;SDS011;62678;52.130;5.584;2023-05-10T00:11:51;50.95;;;29.13;;
11962;SDS011;62678;52.130;5.584;2023-05-10T00:14:18;62.55;;;34.25;;
11962;SDS011;62678;52.130;5.584;2023-05-10T00:16:47;62.97;;;34.22;;
11962;SDS011;62678;52.130;5.584;2023-05-10T00:19:14;67.65;;;35.55;;
11962;SDS011;62678;52.130;5.584;2023-05-10T00:21:41;68.05;;;35.22;;
11962;SDS011;62678;52.130;5.584;2023-05-10T00:24:08;74.43;;;36.28;;
11962;SDS011;62678;52.130;5.584;2023-05-10T00:26:35;77.55;;;37.80;;
11962;SDS011;62678;52.130;5.584;2023-05-10T00:29:02;79.00;;;39.75;;
11962;SDS011;62678;52.130;5.584;2023-05-10T00:31:29;84.95;;;40.72;;
11962;SDS011;62678;52.130;5.584;2023-05-10T00:33:57;84.65;;;39.55;;
11962;SDS011;62678;52.130;5.584;2023-05-10T00:36:24;91.65;;;41.10;;
11962;SDS011;62678;52.130;5.584;2023-05-10T00:38:52;86.95;;;41.25;;
11962;SDS011;62678;52.130;5.584;2023-05-10T00:41:19;91.88;;;41.70;;
11962;SDS011;62678;52.130;5.584;2023-05-10T00:43:47;97.30;;;43.00;;
11962;SDS011;62678;52.130;5.584;2023-05-10T00:46:14;102.53;;;45.25;;
11962;SDS011;62678;52.130;5.584;2023-05-10T00:48:42;95.60;;;44.67;;
11962;SDS011;62678;52.130;5.584;2023-05-10T00:51:12;97.55;;;43.10;;
11962;SDS011;62678;52.130;5.584;2023-05-10T00:53:39;104.00;;;43.95;;
11962;SDS011;62678;52.130;5.584;2023-05-10T00:56:07;99.07;;;43.22;;
11962;SDS011;62678;52.130;5.584;2023-05-10T00:58:34;103.95;;;44.80;;
11962;SDS011;62678;52.130;5.584;2023-05-10T01:01:01;108.82;;;46.03;;
11962;SDS011;62678;52.130;5.584;2023-05-10T01:03:29;111.13;;;46.72;;
11962;SDS011;62678;52.130;5.584;2023-05-10T01:05:56;110.82;;;46.80;;
11962;SDS011;62678;52.130;5.584;2023-05-10T01:08:25;125.57;;;50.85;;
11962;SDS011;62678;52.130;5.584;2023-05-10T01:10:53;120.32;;;49.20;;
11962;SDS011;62678;52.130;5.584;2023-05-10T01:13:23;129.43;;;50.97;;
11962;SDS011;62678;52.130;5.584;2023-05-10T01:15:59;133.98;;;51.17;;
11962;SDS011;62678;52.130;5.584;2023-05-10T01:18:28;132.57;;;51.35;;
11962;SDS011;62678;52.130;5.584;2023-05-10T01:21:01;144.80;;;52.83;;
11962;SDS011;62678;52.130;5.584;2023-05-10T01:23:55;146.32;;;53.42;;
11962;SDS011;62678;52.130;5.584;2023-05-10T01:26:57;136.38;;;53.42;;
11962;SDS011;62678;52.130;5.584;2023-05-10T01:29:50;145.55;;;54.78;;
11962;SDS011;62678;52.130;5.584;2023-05-10T01:32:37;154.50;;;55.95;;
11962;SDS011;62678;52.130;5.584;2023-05-10T01:35:09;142.68;;;54.67;;
11962;SDS011;62678;52.130;5.584;2023-05-10T01:37:45;147.85;;;55.67;;
11962;SDS011;62678;52.130;5.584;2023-05-10T01:40:18;148.32;;;55.33;;
11962;SDS011;62678;52.130;5.584;2023-05-10T01:42:50;137.52;;;53.67;;
11962;SDS011;62678;52.130;5.584;2023-05-10T01:45:22;151.02;;;56.35;;
11962;SDS011;62678;52.130;5.584;2023-05-10T01:48:02;140.35;;;53.13;;
11962;SDS011;62678;52.130;5.584;2023-05-10T01:50:32;145.23;;;54.75;;
11962;SDS011;62678;52.130;5.584;2023-05-10T01:53:02;147.05;;;55.53;;
11962;SDS011;62678;52.130;5.584;2023-05-10T01:55:34;148.05;;;55.33;;
11962;SDS011;62678;52.130;5.584;2023-05-10T01:58:10;143.23;;;54.03;;
11962;SDS011;62678;52.130;5.584;2023-05-10T02:00:41;147.70;;;55.35;;
11962;SDS011;62678;52.130;5.584;2023-05-10T02:03:12;158.52;;;56.83;;
11962;SDS011;62678;52.130;5.584;2023-05-10T02:05:41;150.82;;;55.30;;
11962;SDS011;62678;52.130;5.584;2023-05-10T02:08:09;145.95;;;55.38;;
11962;SDS011;62678;52.130;5.584;2023-05-10T02:10:37;139.43;;;53.65;;
11962;SDS011;62678;52.130;5.584;2023-05-10T02:13:06;143.98;;;54.90;;
11962;SDS011;62678;52.130;5.584;2023-05-10T02:15:34;137.95;;;53.88;;
11962;SDS011;62678;52.130;5.584;2023-05-10T02:18:03;134.05;;;51.53;;
11962;SDS011;62678;52.130;5.584;2023-05-10T02:20:32;135.13;;;53.28;;
11962;SDS011;62678;52.130;5.584;2023-05-10T02:23:01;136.05;;;52.47;;
11962;SDS011;62678;52.130;5.584;2023-05-10T02:25:30;138.70;;;52.70;;
11962;SDS011;62678;52.130;5.584;2023-05-10T02:27:59;132.82;;;51.63;;
11962;SDS011;62678;52.130;5.584;2023-05-10T02:30:31;147.30;;;53.00;;
11962;SDS011;62678;52.130;5.584;2023-05-10T02:32:59;138.55;;;51.95;;
11962;SDS011;62678;52.130;5.584;2023-05-10T02:35:28;131.65;;;51.08;;
11962;SDS011;62678;52.130;5.584;2023-05-10T02:37:57;130.85;;;51.45;;
11962;SDS011;62678;52.130;5.584;2023-05-10T02:40:25;134.00;;;52.45;;
11962;SDS011;62678;52.130;5.584;2023-05-10T02:42:54;139.20;;;52.55;;
11962;SDS011;62678;52.130;5.584;2023-05-10T02:45:23;138.95;;;53.35;;
11962;SDS011;62678;52.130;5.584;2023-05-10T02:47:54;137.50;;;51.22;;
11962;SDS011;62678;52.130;5.584;2023-05-10T02:50:21;137.07;;;51.22;;
11962;SDS011;62678;52.130;5.584;2023-05-10T02:52:52;139.00;;;53.45;;
11962;SDS011;62678;52.130;5.584;2023-05-10T02:55:29;123.53;;;50.13;;
11962;SDS011;62678;52.130;5.584;2023-05-10T02:58:01;126.63;;;49.58;;
11962;SDS011;62678;52.130;5.584;2023-05-10T03:00:29;139.50;;;52.22;;
11962;SDS011;62678;52.130;5.584;2023-05-10T03:02:57;136.10;;;52.83;;
11962;SDS011;62678;52.130;5.584;2023-05-10T03:05:24;128.18;;;51.03;;
11962;SDS011;62678;52.130;5.584;2023-05-10T03:07:51;129.15;;;52.03;;
11962;SDS011;62678;52.130;5.584;2023-05-10T03:10:19;129.65;;;50.58;;
11962;SDS011;62678;52.130;5.584;2023-05-10T03:12:56;125.57;;;50.65;;
11962;SDS011;62678;52.130;5.584;2023-05-10T03:15:34;128.55;;;50.95;;
11962;SDS011;62678;52.130;5.584;2023-05-10T03:18:09;127.38;;;50.58;;
11962;SDS011;62678;52.130;5.584;2023-05-10T03:20:41;134.27;;;51.75;;
11962;SDS011;62678;52.130;5.584;2023-05-10T03:23:11;126.05;;;49.42;;
11962;SDS011;62678;52.130;5.584;2023-05-10T03:25:43;126.50;;;49.58;;
11962;SDS011;62678;52.130;5.584;2023-05-10T03:28:13;135.23;;;50.63;;
11962;SDS011;62678;52.130;5.584;2023-05-10T03:30:44;132.50;;;49.50;;
11962;SDS011;62678;52.130;5.584;2023-05-10T03:33:12;129.18;;;49.53;;
11962;SDS011;62678;52.130;5.584;2023-05-10T03:35:39;141.05;;;49.83;;
11962;SDS011;62678;52.130;5.584;2023-05-10T03:38:06;138.52;;;51.50;;
11962;SDS011;62678;52.130;5.584;2023-05-10T03:40:34;151.43;;;52.83;;
11962;SDS011;62678;52.130;5.584;2023-05-10T03:43:01;150.23;;;54.05;;
11962;SDS011;62678;52.130;5.584;2023-05-10T03:45:29;166.73;;;54.25;;
11962;SDS011;62678;52.130;5.584;2023-05-10T03:47:57;157.85;;;54.35;;
11962;SDS011;62678;52.130;5.584;2023-05-10T03:50:24;184.50;;;54.70;;
11962;SDS011;62678;52.130;5.584;2023-05-10T03:52:51;173.00;;;51.97;;
11962;SDS011;62678;52.130;5.584;2023-05-10T03:55:19;181.60;;;54.65;;
11962;SDS011;62678;52.130;5.584;2023-05-10T03:57:46;195.00;;;56.10;;
11962;SDS011;62678;52.130;5.584;2023-05-10T04:00:14;188.10;;;56.83;;
11962;SDS011;62678;52.130;5.584;2023-05-10T04:02:43;209.82;;;56.85;;
11962;SDS011;62678;52.130;5.584;2023-05-10T04:05:10;198.90;;;54.83;;
11962;SDS011;62678;52.130;5.584;2023-05-10T04:07:38;199.88;;;55.85;;
11962;SDS011;62678;52.130;5.584;2023-05-10T04:10:05;197.48;;;56.42;;
11962;SDS011;62678;52.130;5.584;2023-05-10T04:12:33;203.68;;;57.47;;
11962;SDS011;62678;52.130;5.584;2023-05-10T04:15:00;214.75;;;57.20;;
11962;SDS011;62678;52.130;5.584;2023-05-10T04:17:27;216.75;;;57.72;;
11962;SDS011;62678;52.130;5.584;2023-05-10T04:19:56;211.35;;;57.20;;
11962;SDS011;62678;52.130;5.584;2023-05-10T04:22:23;206.18;;;56.92;;
11962;SDS011;62678;52.130;5.584;2023-05-10T04:24:50;196.80;;;55.35;;
11962;SDS011;62678;52.130;5.584;2023-05-10T04:27:17;197.00;;;56.63;;
11962;SDS011;62678;52.130;5.584;2023-05-10T04:29:44;197.52;;;55.75;;
11962;SDS011;62678;52.130;5.584;2023-05-10T04:32:11;191.50;;;53.95;;
11962;SDS011;62678;52.130;5.584;2023-05-10T04:34:38;190.65;;;54.08;;
11962;SDS011;62678;52.130;5.584;2023-05-10T04:37:07;176.13;;;53.50;;
11962;SDS011;62678;52.130;5.584;2023-05-10T04:39:34;175.65;;;51.03;;
11962;SDS011;62678;52.130;5.584;2023-05-10T04:42:01;168.80;;;51.80;;
11962;SDS011;62678;52.130;5.584;2023-05-10T04:44:30;171.27;;;50.67;;
11962;SDS011;62678;52.130;5.584;2023-05-10T04:46:57;167.65;;;50.33;;
11962;SDS011;62678;52.130;5.584;2023-05-10T04:49:25;183.98;;;51.17;;
11962;SDS011;62678;52.130;5.584;2023-05-10T04:51:52;182.13;;;52.22;;
11962;SDS011;62678;52.130;5.584;2023-05-10T04:54:20;167.52;;;49.40;;
11962;SDS011;62678;52.130;5.584;2023-05-10T04:56:48;171.80;;;51.20;;
11962;SDS011;62678;52.130;5.584;2023-05-10T04:59:15;175.48;;;50.60;;
11962;SDS011;62678;52.130;5.584;2023-05-10T05:01:42;167.13;;;49.75;;
11962;SDS011;62678;52.130;5.584;2023-05-10T05:04:09;169.63;;;50.25;;
11962;SDS011;62678;52.130;5.584;2023-05-10T05:06:37;166.57;;;50.38;;
11962;SDS011;62678;52.130;5.584;2023-05-10T05:09:04;172.52;;;52.03;;
11962;SDS011;62678;52.130;5.584;2023-05-10T05:11:32;163.90;;;50.13;;
11962;SDS011;62678;52.130;5.584;2023-05-10T05:13:59;159.35;;;49.85;;
11962;SDS011;62678;52.130;5.584;2023-05-10T05:16:26;163.77;;;50.72;;
11962;SDS011;62678;52.130;5.584;2023-05-10T05:18:53;179.00;;;53.30;;
11962;SDS011;62678;52.130;5.584;2023-05-10T05:21:21;161.35;;;49.38;;
11962;SDS011;62678;52.130;5.584;2023-05-10T05:23:49;164.52;;;51.58;;
11962;SDS011;62678;52.130;5.584;2023-05-10T05:26:16;170.73;;;51.67;;
11962;SDS011;62678;52.130;5.584;2023-05-10T05:28:44;173.07;;;49.67;;
11962;SDS011;62678;52.130;5.584;2023-05-10T05:31:13;176.43;;;50.10;;
11962;SDS011;62678;52.130;5.584;2023-05-10T05:33:40;174.50;;;49.42;;
11962;SDS011;62678;52.130;5.584;2023-05-10T05:36:07;179.77;;;50.72;;
11962;SDS011;62678;52.130;5.584;2023-05-10T05:38:35;177.57;;;51.33;;
11962;SDS011;62678;52.130;5.584;2023-05-10T05:41:02;186.05;;;51.35;;
11962;SDS011;62678;52.130;5.584;2023-05-10T05:43:29;191.65;;;51.60;;
11962;SDS011;62678;52.130;5.584;2023-05-10T05:45:57;198.70;;;52.30;;
11962;SDS011;62678;52.130;5.584;2023-05-10T05:48:24;207.45;;;52.47;;
11962;SDS011;62678;52.130;5.584;2023-05-10T05:50:54;201.90;;;52.38;;
11962;SDS011;62678;52.130;5.584;2023-05-10T05:53:21;212.02;;;54.08;;
11962;SDS011;62678;52.130;5.584;2023-05-10T05:55:52;206.20;;;54.90;;
11962;SDS011;62678;52.130;5.584;2023-05-10T05:58:20;215.85;;;55.65;;
11962;SDS011;62678;52.130;5.584;2023-05-10T06:00:48;214.85;;;54.65;;
11962;SDS011;62678;52.130;5.584;2023-05-10T06:03:17;206.75;;;55.13;;
11962;SDS011;62678;52.130;5.584;2023-05-10T06:05:44;214.93;;;57.60;;
11962;SDS011;62678;52.130;5.584;2023-05-10T06:08:11;212.10;;;55.13;;
11962;SDS011;62678;52.130;5.584;2023-05-10T06:10:38;208.65;;;56.75;;
11962;SDS011;62678;52.130;5.584;2023-05-10T06:13:05;214.73;;;54.53;;
11962;SDS011;62678;52.130;5.584;2023-05-10T06:15:32;239.73;;;60.05;;
11962;SDS011;62678;52.130;5.584;2023-05-10T06:17:59;206.20;;;58.13;;
11962;SDS011;62678;52.130;5.584;2023-05-10T06:20:28;209.88;;;59.70;;
11962;SDS011;62678;52.130;5.584;2023-05-10T06:22:56;225.55;;;63.08;;
11962;SDS011;62678;52.130;5.584;2023-05-10T06:25:23;227.85;;;64.38;;
11962;SDS011;62678;52.130;5.584;2023-05-10T06:27:50;207.32;;;63.08;;
11962;SDS011;62678;52.130;5.584;2023-05-10T06:30:22;211.02;;;64.00;;
11962;SDS011;62678;52.130;5.584;2023-05-10T06:32:52;190.07;;;61.47;;
11962;SDS011;62678;52.130;5.584;2023-05-10T06:35:20;197.27;;;62.78;;
11962;SDS011;62678;52.130;5.584;2023-05-10T06:37:48;169.77;;;59.53;;
11962;SDS011;62678;52.130;5.584;2023-05-10T06:40:16;170.43;;;57.80;;
11962;SDS011;62678;52.130;5.584;2023-05-10T06:42:44;158.07;;;58.85;;
11962;SDS011;62678;52.130;5.584;2023-05-10T06:45:11;150.32;;;55.40;;
11962;SDS011;62678;52.130;5.584;2023-05-10T06:47:39;144.13;;;53.72;;
11962;SDS011;62678;52.130;5.584;2023-05-10T06:50:07;131.65;;;51.55;;
11962;SDS011;62678;52.130;5.584;2023-05-10T06:52:34;130.50;;;50.45;;
11962;SDS011;62678;52.130;5.584;2023-05-10T06:55:03;113.28;;;49.10;;
11962;SDS011;62678;52.130;5.584;2023-05-10T06:57:31;118.00;;;48.15;;
11962;SDS011;62678;52.130;5.584;2023-05-10T06:59:58;119.50;;;48.38;;
11962;SDS011;62678;52.130;5.584;2023-05-10T07:02:26;119.70;;;49.53;;
11962;SDS011;62678;52.130;5.584;2023-05-10T07:04:53;117.88;;;46.75;;
11962;SDS011;62678;52.130;5.584;2023-05-10T07:07:21;103.85;;;43.33;;
11962;SDS011;62678;52.130;5.584;2023-05-10T07:09:48;106.43;;;43.42;;
11962;SDS011;62678;52.130;5.584;2023-05-10T07:12:18;99.32;;;41.13;;
11962;SDS011;62678;52.130;5.584;2023-05-10T07:14:45;82.28;;;36.92;;
11962;SDS011;62678;52.130;5.584;2023-05-10T07:17:12;73.45;;;33.58;;
11962;SDS011;62678;52.130;5.584;2023-05-10T07:19:39;68.45;;;33.75;;
11962;SDS011;62678;52.130;5.584;2023-05-10T07:22:06;63.42;;;31.73;;
11962;SDS011;62678;52.130;5.584;2023-05-10T07:24:34;60.55;;;28.90;;
11962;SDS011;62678;52.130;5.584;2023-05-10T07:27:01;52.05;;;27.60;;
11962;SDS011;62678;52.130;5.584;2023-05-10T07:29:30;44.90;;;24.98;;
11962;SDS011;62678;52.130;5.584;2023-05-10T07:31:58;45.42;;;24.67;;
11962;SDS011;62678;52.130;5.584;2023-05-10T07:34:25;42.03;;;24.55;;
11962;SDS011;62678;52.130;5.584;2023-05-10T07:36:52;41.65;;;25.35;;
11962;SDS011;62678;52.130;5.584;2023-05-10T07:39:19;38.50;;;23.13;;
11962;SDS011;62678;52.130;5.584;2023-05-10T07:41:46;40.08;;;22.08;;
11962;SDS011;62678;52.130;5.584;2023-05-10T07:44:14;35.85;;;21.40;;
11962;SDS011;62678;52.130;5.584;2023-05-10T07:46:44;35.63;;;21.52;;
11962;SDS011;62678;52.130;5.584;2023-05-10T07:49:12;34.15;;;19.38;;
11962;SDS011;62678;52.130;5.584;2023-05-10T07:51:39;27.85;;;17.00;;
11962;SDS011;62678;52.130;5.584;2023-05-10T07:54:07;28.98;;;18.13;;
11962;SDS011;62678;52.130;5.584;2023-05-10T07:56:34;27.25;;;17.30;;
11962;SDS011;62678;52.130;5.584;2023-05-10T07:59:02;27.70;;;18.00;;
11962;SDS011;62678;52.130;5.584;2023-05-10T08:01:30;30.50;;;18.85;;
11962;SDS011;62678;52.130;5.584;2023-05-10T08:03:59;28.73;;;17.58;;
11962;SDS011;62678;52.130;5.584;2023-05-10T08:06:27;34.45;;;18.85;;
11962;SDS011;62678;52.130;5.584;2023-05-10T08:08:55;29.15;;;17.45;;
11962;SDS011;62678;52.130;5.584;2023-05-10T08:11:22;28.98;;;17.42;;
11962;SDS011;62678;52.130;5.584;2023-05-10T08:13:50;31.45;;;18.02;;
11962;SDS011;62678;52.130;5.584;2023-05-10T08:16:17;27.60;;;17.98;;
11962;SDS011;62678;52.130;5.584;2023-05-10T08:18:45;28.42;;;17.70;;
11962;SDS011;62678;52.130;5.584;2023-05-10T08:21:14;31.02;;;17.83;;
11962;SDS011;62678;52.130;5.584;2023-05-10T08:23:41;30.63;;;18.60;;
11962;SDS011;62678;52.130;5.584;2023-05-10T08:26:09;26.75;;;17.85;;
11962;SDS011;62678;52.130;5.584;2023-05-10T08:28:36;31.48;;;17.65;;
11962;SDS011;62678;52.130;5.584;2023-05-10T08:31:04;20.45;;;14.77;;
11962;SDS011;62678;52.130;5.584;2023-05-10T08:33:31;19.95;;;14.38;;
11962;SDS011;62678;52.130;5.584;2023-05-10T08:35:58;19.00;;;14.00;;
11962;SDS011;62678;52.130;5.584;2023-05-10T08:38:27;17.55;;;13.02;;
11962;SDS011;62678;52.130;5.584;2023-05-10T08:40:54;19.67;;;14.45;;
11962;SDS011;62678;52.130;5.584;2023-05-10T08:43:25;26.67;;;16.30;;
11962;SDS011;62678;52.130;5.584;2023-05-10T08:45:54;21.75;;;15.15;;
11962;SDS011;62678;52.130;5.584;2023-05-10T08:48:22;23.63;;;14.70;;
11962;SDS011;62678;52.130;5.584;2023-05-10T08:50:52;21.80;;;14.93;;
11962;SDS011;62678;52.130;5.584;2023-05-10T08:53:21;21.63;;;15.27;;
11962;SDS011;62678;52.130;5.584;2023-05-10T08:55:51;23.13;;;15.68;;
11962;SDS011;62678;52.130;5.584;2023-05-10T08:58:19;24.95;;;15.95;;
11962;SDS011;62678;52.130;5.584;2023-05-10T09:00:48;24.33;;;16.05;;
11962;SDS011;62678;52.130;5.584;2023-05-10T09:03:17;21.65;;;16.52;;
11962;SDS011;62678;52.130;5.584;2023-05-10T09:05:45;26.30;;;16.45;;
11962;SDS011;62678;52.130;5.584;2023-05-10T09:08:12;26.88;;;18.15;;
11962;SDS011;62678;52.130;5.584;2023-05-10T09:10:41;29.13;;;18.50;;
11962;SDS011;62678;52.130;5.584;2023-05-10T09:13:11;23.23;;;17.83;;
11962;SDS011;62678;52.130;5.584;2023-05-10T09:15:40;30.58;;;19.77;;
11962;SDS011;62678;52.130;5.584;2023-05-10T09:18:07;25.52;;;17.42;;
11962;SDS011;62678;52.130;5.584;2023-05-10T09:20:34;22.95;;;16.25;;
11962;SDS011;62678;52.130;5.584;2023-05-10T09:23:01;23.30;;;16.23;;
11962;SDS011;62678;52.130;5.584;2023-05-10T09:25:30;23.35;;;16.52;;
11962;SDS011;62678;52.130;5.584;2023-05-10T09:27:58;20.02;;;15.07;;
11962;SDS011;62678;52.130;5.584;2023-05-10T09:30:27;23.33;;;16.20;;
11962;SDS011;62678;52.130;5.584;2023-05-10T09:32:56;22.60;;;15.57;;
11962;SDS011;62678;52.130;5.584;2023-05-10T09:35:24;22.88;;;16.08;;
11962;SDS011;62678;52.130;5.584;2023-05-10T09:37:54;22.23;;;15.18;;
11962;SDS011;62678;52.130;5.584;2023-05-10T09:40:23;22.20;;;15.80;;
11962;SDS011;62678;52.130;5.584;2023-05-10T09:42:51;23.40;;;16.00;;
11962;SDS011;62678;52.130;5.584;2023-05-10T09:45:20;23.40;;;16.25;;
11962;SDS011;62678;52.130;5.584;2023-05-10T09:47:49;19.23;;;14.10;;
11962;SDS011;62678;52.130;5.584;2023-05-10T09:50:16;19.67;;;13.93;;
11962;SDS011;62678;52.130;5.584;2023-05-10T09:52:47;17.30;;;13.38;;
11962;SDS011;62678;52.130;5.584;2023-05-10T09:55:16;19.75;;;13.60;;
11962;SDS011;62678;52.130;5.584;2023-05-10T09:57:45;12.60;;;11.20;;
11962;SDS011;62678;52.130;5.584;2023-05-10T10:00:16;14.38;;;10.60;;
11962;SDS011;62678;52.130;5.584;2023-05-10T10:02:45;13.88;;;10.50;;
11962;SDS011;62678;52.130;5.584;2023-05-10T10:05:14;15.15;;;11.30;;
11962;SDS011;62678;52.130;5.584;2023-05-10T10:07:41;12.68;;;10.05;;
11962;SDS011;62678;52.130;5.584;2023-05-10T10:10:09;11.23;;;9.32;;
11962;SDS011;62678;52.130;5.584;2023-05-10T10:12:38;10.10;;;8.88;;
11962;SDS011;62678;52.130;5.584;2023-05-10T10:15:07;10.50;;;7.05;;
11962;SDS011;62678;52.130;5.584;2023-05-10T10:17:35;12.30;;;8.82;;
11962;SDS011;62678;52.130;5.584;2023-05-10T10:20:04;10.68;;;7.82;;
11962;SDS011;62678;52.130;5.584;2023-05-10T10:22:34;10.70;;;8.18;;
11962;SDS011;62678;52.130;5.584;2023-05-10T10:25:03;9.20;;;7.65;;
11962;SDS011;62678;52.130;5.584;2023-05-10T10:27:34;9.98;;;7.65;;
11962;SDS011;62678;52.130;5.584;2023-05-10T10:30:13;12.25;;;8.13;;
11962;SDS011;62678;52.130;5.584;2023-05-10T10:32:53;10.30;;;8.02;;
11962;SDS011;62678;52.130;5.584;2023-05-10T10:35:39;9.60;;;7.10;;
11962;SDS011;62678;52.130;5.584;2023-05-10T10:38:08;8.90;;;6.85;;
11962;SDS011;62678;52.130;5.584;2023-05-10T10:40:35;8.55;;;6.93;;
11962;SDS011;62678;52.130;5.584;2023-05-10T10:43:22;8.23;;;6.88;;
11962;SDS011;62678;52.130;5.584;2023-05-10T10:46:10;9.07;;;6.50;;
11962;SDS011;62678;52.130;5.584;2023-05-10T10:48:39;7.40;;;5.90;;
11962;SDS011;62678;52.130;5.584;2023-05-10T10:51:06;8.68;;;5.53;;
11962;SDS011;62678;52.130;5.584;2023-05-10T10:53:35;7.88;;;5.88;;
11962;SDS011;62678;52.130;5.584;2023-05-10T10:56:05;6.88;;;5.32;;
11962;SDS011;62678;52.130;5.584;2023-05-10T10:58:35;8.68;;;5.25;;
11962;SDS011;62678;52.130;5.584;2023-05-10T11:01:10;7.38;;;6.13;;
11962;SDS011;62678;52.130;5.584;2023-05-10T11:03:38;8.77;;;6.38;;
11962;SDS011;62678;52.130;5.584;2023-05-10T11:06:06;7.50;;;6.47;;
11962;SDS011;62678;52.130;5.584;2023-05-10T11:08:41;9.85;;;7.40;;
11962;SDS011;62678;52.130;5.584;2023-05-10T11:11:13;9.43;;;7.72;;
11962;SDS011;62678;52.130;5.584;2023-05-10T11:13:41;9.85;;;8.00;;
11962;SDS011;62678;52.130;5.584;2023-05-10T11:16:11;11.93;;;8.85;;
11962;SDS011;62678;52.130;5.584;2023-05-10T11:18:39;11.30;;;9.30;;
11962;SDS011;62678;52.130;5.584;2023-05-10T11:21:08;12.23;;;9.35;;
11962;SDS011;62678;52.130;5.584;2023-05-10T11:23:49;13.52;;;9.05;;
11962;SDS011;62678;52.130;5.584;2023-05-10T11:26:17;10.52;;;8.27;;
11962;SDS011;62678;52.130;5.584;2023-05-10T11:28:48;11.23;;;8.52;;
11962;SDS011;62678;52.130;5.584;2023-05-10T11:31:16;12.00;;;9.23;;
11962;SDS011;62678;52.130;5.584;2023-05-10T11:33:44;10.05;;;8.10;;
11962;SDS011;62678;52.130;5.584;2023-05-10T11:36:12;11.07;;;8.05;;
11962;SDS011;62678;52.130;5.584;2023-05-10T11:38:40;9.18;;;8.10;;
11962;SDS011;62678;52.130;5.584;2023-05-10T11:41:09;11.15;;;8.55;;
11962;SDS011;62678;52.130;5.584;2023-05-10T11:43:37;10.07;;;8.20;;
11962;SDS011;62678;52.130;5.584;2023-05-10T11:46:06;11.02;;;8.07;;
11962;SDS011;62678;52.130;5.584;2023-05-10T11:48:34;10.57;;;8.00;;
11962;SDS011;62678;52.130;5.584;2023-05-10T11:51:01;9.80;;;7.85;;
11962;SDS011;62678;52.130;5.584;2023-05-10T11:53:29;10.57;;;8.00;;
11962;SDS011;62678;52.130;5.584;2023-05-10T11:56:02;8.98;;;7.35;;
11962;SDS011;62678;52.130;5.584;2023-05-10T11:58:31;9.15;;;7.07;;
11962;SDS011;62678;52.130;5.584;2023-05-10T12:00:59;11.88;;;7.80;;
11962;SDS011;62678;52.130;5.584;2023-05-10T12:03:26;9.98;;;7.93;;
11962;SDS011;62678;52.130;5.584;2023-05-10T12:05:54;12.82;;;7.68;;
11962;SDS011;62678;52.130;5.584;2023-05-10T12:08:22;11.63;;;7.70;;
11962;SDS011;62678;52.130;5.584;2023-05-10T12:10:49;7.95;;;6.88;;
11962;SDS011;62678;52.130;5.584;2023-05-10T12:13:17;9.02;;;7.75;;
11962;SDS011;62678;52.130;5.584;2023-05-10T12:15:46;9.07;;;7.50;;
11962;SDS011;62678;52.130;5.584;2023-05-10T12:18:14;9.50;;;7.53;;
11962;SDS011;62678;52.130;5.584;2023-05-10T12:20:49;8.13;;;6.45;;
11962;SDS011;62678;52.130;5.584;2023-05-10T12:23:18;10.98;;;7.60;;
11962;SDS011;62678;52.130;5.584;2023-05-10T12:25:46;9.18;;;6.97;;
11962;SDS011;62678;52.130;5.584;2023-05-10T12:28:13;9.93;;;7.05;;
11962;SDS011;62678;52.130;5.584;2023-05-10T12:30:40;11.95;;;7.18;;
11962;SDS011;62678;52.130;5.584;2023-05-10T12:33:10;10.43;;;7.47;;
11962;SDS011;62678;52.130;5.584;2023-05-10T12:35:43;9.80;;;7.07;;
11962;SDS011;62678;52.130;5.584;2023-05-10T12:38:24;8.60;;;6.88;;
11962;SDS011;62678;52.130;5.584;2023-05-10T12:40:54;8.90;;;7.57;;
11962;SDS011;62678;52.130;5.584;2023-05-10T12:43:22;10.02;;;8.05;;
11962;SDS011;62678;52.130;5.584;2023-05-10T12:45:49;15.15;;;7.68;;
11962;SDS011;62678;52.130;5.584;2023-05-10T12:48:18;10.40;;;6.55;;
11962;SDS011;62678;52.130;5.584;2023-05-10T12:50:46;9.30;;;6.50;;
11962;SDS011;62678;52.130;5.584;2023-05-10T12:53:13;7.65;;;6.43;;
11962;SDS011;62678;52.130;5.584;2023-05-10T12:55:41;8.02;;;6.10;;
11962;SDS011;62678;52.130;5.584;2023-05-10T12:58:08;6.90;;;5.63;;
11962;SDS011;62678;52.130;5.584;2023-05-10T13:00:35;8.38;;;5.43;;
11962;SDS011;62678;52.130;5.584;2023-05-10T13:03:03;6.13;;;5.18;;
11962;SDS011;62678;52.130;5.584;2023-05-10T13:05:32;6.50;;;3.85;;
11962;SDS011;62678;52.130;5.584;2023-05-10T13:08:00;4.30;;;3.90;;
11962;SDS011;62678;52.130;5.584;2023-05-10T13:10:28;5.97;;;4.10;;
11962;SDS011;62678;52.130;5.584;2023-05-10T13:12:56;7.70;;;5.57;;
11962;SDS011;62678;52.130;5.584;2023-05-10T13:15:23;4.90;;;4.10;;
11962;SDS011;62678;52.130;5.584;2023-05-10T13:17:51;8.35;;;4.20;;
11962;SDS011;62678;52.130;5.584;2023-05-10T13:20:19;5.55;;;3.70;;
11962;SDS011;62678;52.130;5.584;2023-05-10T13:22:47;7.07;;;3.50;;
11962;SDS011;62678;52.130;5.584;2023-05-10T13:25:15;4.68;;;3.65;;
11962;SDS011;62678;52.130;5.584;2023-05-10T13:27:42;6.30;;;3.30;;
11962;SDS011;62678;52.130;5.584;2023-05-10T13:30:09;4.03;;;3.20;;
11962;SDS011;62678;52.130;5.584;2023-05-10T13:32:37;4.57;;;3.22;;
11962;SDS011;62678;52.130;5.584;2023-05-10T13:35:05;4.47;;;3.50;;
11962;SDS011;62678;52.130;5.584;2023-05-10T13:37:32;6.35;;;3.67;;
11962;SDS011;62678;52.130;5.584;2023-05-10T13:40:04;5.05;;;3.60;;
11962;SDS011;62678;52.130;5.584;2023-05-10T13:42:32;5.78;;;3.88;;
11962;SDS011;62678;52.130;5.584;2023-05-10T13:45:01;8.27;;;4.10;;
11962;SDS011;62678;52.130;5.584;2023-05-10T13:47:28;6.78;;;5.32;;
11962;SDS011;62678;52.130;5.584;2023-05-10T13:49:55;6.57;;;5.90;;
11962;SDS011;62678;52.130;5.584;2023-05-10T13:52:22;10.10;;;7.38;;
11962;SDS011;62678;52.130;5.584;2023-05-10T13:54:50;9.63;;;7.03;;
11962;SDS011;62678;52.130;5.584;2023-05-10T13:57:21;9.85;;;7.35;;
11962;SDS011;62678;52.130;5.584;2023-05-10T13:59:49;8.98;;;7.00;;
11962;SDS011;62678;52.130;5.584;2023-05-10T14:02:16;9.32;;;6.35;;
11962;SDS011;62678;52.130;5.584;2023-05-10T14:04:43;9.02;;;6.40;;
11962;SDS011;62678;52.130;5.584;2023-05-10T14:07:11;8.68;;;6.22;;
11962;SDS011;62678;52.130;5.584;2023-05-10T14:09:38;8.05;;;6.18;;
11962;SDS011;62678;52.130;5.584;2023-05-10T14:12:05;7.20;;;5.50;;
11962;SDS011;62678;52.130;5.584;2023-05-10T14:14:33;9.35;;;6.43;;
11962;SDS011;62678;52.130;5.584;2023-05-10T14:17:00;7.60;;;5.85;;
11962;SDS011;62678;52.130;5.584;2023-05-10T14:19:27;9.48;;;6.22;;
11962;SDS011;62678;52.130;5.584;2023-05-10T14:21:57;11.25;;;7.78;;
11962;SDS011;62678;52.130;5.584;2023-05-10T14:24:24;10.60;;;7.03;;
11962;SDS011;62678;52.130;5.584;2023-05-10T14:26:51;10.18;;;6.82;;
11962;SDS011;62678;52.130;5.584;2023-05-10T14:29:19;12.63;;;7.55;;
11962;SDS011;62678;52.130;5.584;2023-05-10T14:31:48;14.93;;;9.07;;
11962;SDS011;62678;52.130;5.584;2023-05-10T14:34:16;11.25;;;8.02;;